首页
METAR-TAF:

METAR-TAF

机场 :

赛义德·易卜拉欣王子国际机场

莫洛尼, 葛摩

纬度: 11-32S, 经度: 043-16E, 海拔: 29米

当前天气观测

该预报发布于6小时和17分钟前的20:00 UTC
风速7节,风向东南
温度 25°C
湿度 79%
气压 1016 hPa
能见度10公里或以上
少量云层高于2000英尺

METAR: FMCH 202000Z 14007KT 9999 FEW020 25/21 Q1016 NOSIG

时间: 05:17 (02:17 UTC)

预报

该预报发布于9小时和17分钟前的17:00 UTC
预报有效从20日的 18点(UTC)到 21日的 24点(UTC)
风速3节,风向
能见度10公里或以上
少量云层高于2000英尺
散云层高于3000英尺
成为
从 21日的 05点(UTC)到 21日的 07点(UTC)
风速10节,风向西转西南
成为
从 21日的 15点(UTC)到 21日的 18点(UTC)
风速3节,风向

TAF: FMCH 201700Z 2018/2124 10003KT 9999 FEW020 SCT030 BECMG 2105/2107 24010KT BECMG 2115/2118 10003KT

超过4000个机场的气象观测和天气预报(METAR&TAF报告)。

可查询的气象台以黄色和红色小点在地图上表示。

将鼠标移到小点上方,可查看气象台名称。

然后点击查看天气观测和预报。

如需切换地图:点击带黑十字的绿色按钮放大地图;点击带横线的绿色按钮缩小地图;或者点击绿色箭头查看邻近地区的地图。


METAR-TAF: